createdAt,value
2019-03-04T00:04:34.822Z,19.70
2019-03-04T00:09:37.793Z,20.70
2019-03-04T00:14:41.187Z,19.23
2019-03-04T00:19:44.410Z,21.10
2019-03-04T00:24:47.970Z,20.07
2019-03-04T00:29:51.541Z,20.10
2019-03-04T00:34:54.506Z,20.03
2019-03-04T00:39:58.166Z,18.20
2019-03-04T00:45:00.663Z,19.57
2019-03-04T00:50:04.970Z,19.40
2019-03-04T00:55:08.136Z,19.30
2019-03-04T01:00:17.283Z,17.90
2019-03-04T01:05:38.590Z,18.70
2019-03-04T01:10:44.716Z,17.27
2019-03-04T01:15:48.338Z,18.17
2019-03-04T01:20:51.188Z,17.30
2019-03-04T01:25:54.141Z,17.90
2019-03-04T01:30:57.203Z,17.70
2019-03-04T01:36:00.003Z,19.70
2019-03-04T01:41:03.313Z,18.20
2019-03-04T01:46:07.160Z,19.90
2019-03-04T01:51:10.344Z,19.70
2019-03-04T01:56:13.308Z,18.77
2019-03-04T02:01:16.359Z,19.83
2019-03-04T02:06:19.904Z,19.60
2019-03-04T02:11:22.790Z,19.23
2019-03-04T02:16:26.351Z,17.20
2019-03-04T02:21:29.721Z,18.03
2019-03-04T02:26:34.159Z,17.67
2019-03-04T02:31:37.637Z,16.27
2019-03-04T02:36:40.566Z,17.70
2019-03-04T02:41:43.778Z,15.93
2019-03-04T02:46:46.987Z,16.87
2019-03-04T02:51:50.400Z,16.73
2019-03-04T02:56:53.310Z,15.53
2019-03-04T03:01:56.471Z,16.10
2019-03-04T03:06:59.596Z,18.50
2019-03-04T03:12:02.121Z,15.77
2019-03-04T03:17:05.025Z,15.83
2019-03-04T03:22:08.233Z,16.87
2019-03-04T03:27:11.133Z,17.70
2019-03-04T03:32:14.346Z,14.50
2019-03-04T03:37:17.243Z,15.70
2019-03-04T03:42:20.455Z,15.10
2019-03-04T03:47:22.975Z,14.57
2019-03-04T03:52:25.538Z,14.10
2019-03-04T03:57:29.122Z,14.00
2019-03-04T04:02:32.026Z,13.60
2019-03-04T04:07:35.547Z,13.00
2019-03-04T04:12:38.818Z,11.37
2019-03-04T04:17:41.837Z,11.00
2019-03-04T04:22:44.670Z,10.30
2019-03-04T04:27:48.246Z,10.30
2019-03-04T04:32:51.207Z,10.10
2019-03-04T04:37:54.435Z,8.50
2019-03-04T04:42:57.942Z,9.43
2019-03-04T04:48:01.163Z,9.10
2019-03-04T04:53:04.067Z,7.80
2019-03-04T04:58:07.246Z,8.80
2019-03-04T05:03:10.174Z,7.23
2019-03-04T05:08:13.673Z,8.20
2019-03-04T05:13:17.224Z,8.40
2019-03-04T05:18:20.418Z,7.60
2019-03-04T05:23:23.646Z,6.67
2019-03-04T05:28:27.150Z,7.03
2019-03-04T05:33:30.046Z,7.10
2019-03-04T05:38:33.258Z,5.83
2019-03-04T05:43:36.172Z,6.83
2019-03-04T05:48:39.367Z,5.83
2019-03-04T05:53:42.570Z,6.20
2019-03-04T05:58:45.407Z,7.23
2019-03-04T06:03:48.788Z,7.83
2019-03-04T06:08:51.654Z,7.50
2019-03-04T06:13:54.502Z,7.70
2019-03-04T06:18:57.708Z,8.53
2019-03-04T06:24:00.613Z,7.40
2019-03-04T06:29:03.914Z,6.57
2019-03-04T06:34:07.105Z,6.47
2019-03-04T06:39:10.352Z,5.97
2019-03-04T06:44:13.665Z,5.97
2019-03-04T06:49:17.162Z,5.10
2019-03-04T06:54:54.116Z,4.80
2019-03-04T07:00:48.591Z,5.20
2019-03-04T07:05:52.904Z,3.97
2019-03-04T07:10:56.137Z,4.20
2019-03-04T07:15:59.436Z,3.63
2019-03-04T07:21:02.628Z,3.30
2019-03-04T07:26:05.882Z,3.47
2019-03-04T07:31:08.357Z,2.83
2019-03-04T07:36:11.964Z,3.03
2019-03-04T07:41:14.879Z,2.87
2019-03-04T07:46:18.107Z,3.37
2019-03-04T07:51:20.998Z,2.27
2019-03-04T07:56:24.545Z,2.40
2019-03-04T08:01:27.517Z,2.10
2019-03-04T08:06:30.742Z,2.77
2019-03-04T08:12:22.997Z,2.80
2019-03-04T08:17:25.661Z,2.23
2019-03-04T08:22:28.588Z,2.70
2019-03-04T08:27:31.912Z,2.20
2019-03-04T08:32:34.792Z,2.53
2019-03-04T08:37:38.365Z,2.83
2019-03-04T08:42:41.640Z,2.40
2019-03-04T08:47:44.526Z,2.07
2019-03-04T08:52:47.700Z,3.10
2019-03-04T08:57:51.248Z,2.27
2019-03-04T09:02:54.423Z,2.07
2019-03-04T09:07:57.705Z,2.17
2019-03-04T09:13:00.949Z,1.70
2019-03-04T09:18:04.693Z,1.50
2019-03-04T09:23:07.618Z,0.90
2019-03-04T09:28:10.935Z,0.60
2019-03-04T09:33:14.446Z,0.70
2019-03-04T09:38:17.806Z,0.60
2019-03-04T09:43:21.429Z,0.50
2019-03-04T09:48:25.011Z,0.50
2019-03-04T09:53:28.267Z,0.77
2019-03-04T09:58:30.877Z,0.70
2019-03-04T10:04:33.918Z,0.90
2019-03-04T10:10:08.088Z,0.73
2019-03-04T10:15:44.184Z,0.90
2019-03-04T10:21:17.707Z,0.80
2019-03-04T10:27:06.763Z,0.70
2019-03-04T10:32:54.189Z,1.20
2019-03-04T10:38:11.403Z,1.30
2019-03-04T10:43:30.940Z,0.60
2019-03-04T10:48:33.581Z,1.30
2019-03-04T10:53:36.530Z,1.40
2019-03-04T10:58:40.054Z,0.93
2019-03-04T11:03:43.446Z,1.63
2019-03-04T11:08:46.967Z,2.60
2019-03-04T11:13:50.484Z,1.83
2019-03-04T11:18:54.041Z,1.53
2019-03-04T11:23:57.938Z,1.50
2019-03-04T11:29:00.684Z,1.70
2019-03-04T11:34:04.334Z,1.80
2019-03-04T11:39:25.588Z,1.90
2019-03-04T11:44:28.780Z,1.03
2019-03-04T11:49:31.772Z,0.87
2019-03-04T11:54:35.186Z,0.80
2019-03-04T11:59:38.544Z,1.53
2019-03-04T12:04:42.604Z,1.07
2019-03-04T12:09:45.768Z,2.00
2019-03-04T12:14:48.978Z,0.90
2019-03-04T12:19:52.599Z,2.07
2019-03-04T12:24:55.801Z,1.70
2019-03-04T12:29:58.732Z,1.80
2019-03-04T12:35:02.342Z,1.43
2019-03-04T12:40:07.330Z,1.80
2019-03-04T12:45:12.784Z,1.97
2019-03-04T12:50:21.224Z,1.77
2019-03-04T12:55:24.818Z,2.00
2019-03-04T13:00:28.019Z,1.50
2019-03-04T13:05:31.632Z,1.60
2019-03-04T13:10:34.616Z,2.20
2019-03-04T13:15:37.541Z,2.30
2019-03-04T13:20:40.425Z,1.47
2019-03-04T13:25:43.805Z,1.30
2019-03-04T13:30:47.070Z,1.43
2019-03-04T13:35:50.378Z,1.27
2019-03-04T13:40:55.992Z,1.50
2019-03-04T13:45:58.843Z,2.03
2019-03-04T13:51:02.480Z,1.47
2019-03-04T13:56:05.979Z,1.53
2019-03-04T14:01:09.400Z,1.60
2019-03-04T14:06:13.376Z,1.70
2019-03-04T14:11:16.746Z,1.60
2019-03-04T14:16:19.958Z,1.90
2019-03-04T14:21:23.130Z,1.60
2019-03-04T14:26:26.366Z,1.50
2019-03-04T14:31:28.861Z,2.50
2019-03-04T14:36:32.195Z,1.97
2019-03-04T14:41:35.677Z,1.83
2019-03-04T14:46:38.593Z,2.00
2019-03-04T14:51:41.802Z,1.97
2019-03-04T14:56:44.374Z,2.10
2019-03-04T15:01:47.273Z,2.57
2019-03-04T15:06:50.534Z,2.20
2019-03-04T15:11:53.416Z,1.90
2019-03-04T15:17:03.342Z,1.40
2019-03-04T15:22:02.304Z,1.40
2019-03-04T15:27:06.649Z,1.80
2019-03-04T15:32:10.928Z,1.17
2019-03-04T15:37:16.206Z,1.70
2019-03-04T15:42:19.531Z,1.40
2019-03-04T15:47:22.848Z,1.43
2019-03-04T15:52:25.424Z,1.67
2019-03-04T15:57:28.765Z,1.53
2019-03-04T16:02:32.164Z,1.53
2019-03-04T16:07:35.592Z,1.97
2019-03-04T16:12:38.755Z,2.33
2019-03-04T16:17:41.295Z,1.60
2019-03-04T16:22:44.846Z,1.93
2019-03-04T16:27:48.423Z,2.40
2019-03-04T16:32:52.056Z,2.43
2019-03-04T16:37:55.618Z,2.50
2019-03-04T16:42:59.202Z,3.13
2019-03-04T16:48:02.295Z,3.80
2019-03-04T16:53:06.031Z,5.27
2019-03-04T16:58:09.582Z,4.33
2019-03-04T17:03:13.305Z,3.90
2019-03-04T17:08:16.257Z,4.97
2019-03-04T17:13:19.268Z,3.87
2019-03-04T17:18:22.173Z,5.17
2019-03-04T17:23:24.768Z,5.13
2019-03-04T17:28:28.320Z,3.93
2019-03-04T17:33:31.696Z,4.27
2019-03-04T17:38:35.318Z,6.40
2019-03-04T17:43:38.588Z,4.07
2019-03-04T17:48:42.447Z,4.80
2019-03-04T17:53:46.052Z,3.50
2019-03-04T17:58:49.244Z,5.40
2019-03-04T18:03:54.485Z,5.53
2019-03-04T18:08:58.167Z,4.43
2019-03-04T18:14:01.393Z,5.33
2019-03-04T18:19:04.923Z,6.40
2019-03-04T18:24:08.662Z,5.87
2019-03-04T18:29:39.668Z,6.43
2019-03-04T18:35:13.275Z,6.03
2019-03-04T18:40:47.800Z,6.43
2019-03-04T18:46:19.642Z,5.40
2019-03-04T18:51:22.811Z,8.40
2019-03-04T18:56:26.410Z,6.87
2019-03-04T19:01:30.057Z,7.67
2019-03-04T19:06:35.555Z,6.00
2019-03-04T19:11:42.681Z,6.43
2019-03-04T19:16:47.787Z,6.00
2019-03-04T19:21:55.022Z,5.97
2019-03-04T19:27:02.725Z,6.80
2019-03-04T19:32:10.200Z,6.10
2019-03-04T19:37:18.208Z,7.20
2019-03-04T19:42:28.261Z,7.17
2019-03-04T19:47:35.705Z,5.83
2019-03-04T19:52:44.200Z,6.10
2019-03-04T19:57:51.591Z,6.23
2019-03-04T20:02:59.138Z,5.93
2019-03-04T20:08:09.078Z,7.27
2019-03-04T20:13:16.825Z,7.47
2019-03-04T20:18:21.208Z,7.13
2019-03-04T20:23:25.246Z,5.60
2019-03-04T20:28:32.430Z,6.50
2019-03-04T20:33:39.646Z,6.23
2019-03-04T20:38:48.745Z,6.00
2019-03-04T20:43:55.983Z,4.93
2019-03-04T20:49:03.855Z,7.20
2019-03-04T20:54:11.697Z,7.17
2019-03-04T20:59:18.621Z,5.03
2019-03-04T21:04:25.772Z,7.23
2019-03-04T21:09:33.090Z,5.00
2019-03-04T21:14:40.030Z,6.17
2019-03-04T21:19:44.863Z,4.50
2019-03-04T21:24:48.922Z,5.63
2019-03-04T21:30:42.846Z,3.90
2019-03-04T21:36:19.872Z,5.27
2019-03-04T21:41:43.349Z,5.43
2019-03-04T21:47:08.887Z,3.60
2019-03-04T21:52:37.801Z,4.97
2019-03-04T21:57:46.834Z,4.33
2019-03-04T22:02:56.698Z,5.60
2019-03-04T22:08:00.304Z,4.43
2019-03-04T22:13:04.117Z,6.33
2019-03-04T22:18:08.615Z,5.47
2019-03-04T22:23:11.132Z,4.53
2019-03-04T22:28:14.334Z,5.80
2019-03-04T22:33:17.933Z,4.90
2019-03-04T22:38:21.268Z,5.57
2019-03-04T22:43:24.178Z,5.73
2019-03-04T22:48:27.698Z,6.87
2019-03-04T22:53:30.610Z,5.47
2019-03-04T22:58:34.115Z,6.00
2019-03-04T23:03:37.333Z,5.90
2019-03-04T23:08:40.644Z,6.77
2019-03-04T23:13:53.004Z,5.87
2019-03-04T23:18:56.482Z,5.30
2019-03-04T23:24:00.017Z,4.70
2019-03-04T23:29:03.824Z,6.20
2019-03-04T23:34:07.388Z,5.40
2019-03-04T23:39:10.635Z,5.83
2019-03-04T23:44:14.387Z,6.27
2019-03-04T23:49:17.936Z,5.23
2019-03-04T23:54:22.389Z,5.90
2019-03-04T23:59:25.707Z,4.00
